sensor_id;sensor_type;location;lat;lon;timestamp;pressure;altitude;pressure_sealevel;temperature;humidity
77081;BME280;66009;53.150;18.160;2022-12-11T15:43:00;100182.30;;;17.70;44.56
77081;BME280;66009;53.150;18.160;2022-12-11T15:45:27;100186.11;;;17.72;44.04
77081;BME280;66009;53.150;18.160;2022-12-11T15:47:54;100183.23;;;17.77;43.57
77081;BME280;66009;53.150;18.160;2022-12-11T15:50:27;100185.23;;;17.82;43.28
77081;BME280;66009;53.150;18.160;2022-12-11T15:52:55;100189.29;;;17.85;43.04
77081;BME280;66009;53.150;18.160;2022-12-11T15:55:25;100185.77;;;17.88;42.74
77081;BME280;66009;53.150;18.160;2022-12-11T16:06:02;100129.55;;;12.41;36.06
77081;BME280;66009;53.150;18.160;2022-12-11T16:08:30;100139.36;;;9.38;39.47
77081;BME280;66009;53.150;18.160;2022-12-11T16:10:59;100142.05;;;7.35;41.77
77081;BME280;66009;53.150;18.160;2022-12-11T16:13:26;100151.19;;;5.58;44.21
77081;BME280;66009;53.150;18.160;2022-12-11T16:15:53;100150.34;;;4.18;46.59
77081;BME280;66009;53.150;18.160;2022-12-11T16:18:23;100157.23;;;3.09;48.46
77081;BME280;66009;53.150;18.160;2022-12-11T16:21:15;100161.41;;;2.15;50.79
77081;BME280;66009;53.150;18.160;2022-12-11T16:23:45;100158.33;;;1.42;52.98
77081;BME280;66009;53.150;18.160;2022-12-11T16:26:12;100152.48;;;0.86;53.48
77081;BME280;66009;53.150;18.160;2022-12-11T16:28:41;100164.42;;;0.47;55.12
77081;BME280;66009;53.150;18.160;2022-12-11T16:31:11;100160.17;;;0.09;56.65
77081;BME280;66009;53.150;18.160;2022-12-11T16:33:39;100160.65;;;-0.23;58.17
77081;BME280;66009;53.150;18.160;2022-12-11T16:36:17;100159.39;;;-0.49;57.99
77081;BME280;66009;53.150;18.160;2022-12-11T16:38:50;100163.10;;;-0.69;59.55
77081;BME280;66009;53.150;18.160;2022-12-11T16:41:21;100160.65;;;-0.88;59.74
77081;BME280;66009;53.150;18.160;2022-12-11T16:43:50;100164.34;;;-1.03;60.78
77081;BME280;66009;53.150;18.160;2022-12-11T16:46:23;100164.08;;;-1.14;61.99
77081;BME280;66009;53.150;18.160;2022-12-11T16:48:54;100161.75;;;-1.25;61.63
77081;BME280;66009;53.150;18.160;2022-12-11T16:51:21;100156.27;;;-1.33;62.54
77081;BME280;66009;53.150;18.160;2022-12-11T16:53:50;100150.96;;;-1.40;64.25
77081;BME280;66009;53.150;18.160;2022-12-11T16:56:24;100152.73;;;-1.37;62.80
77081;BME280;66009;53.150;18.160;2022-12-11T16:59:01;100145.83;;;-1.35;63.66
77081;BME280;66009;53.150;18.160;2022-12-11T17:01:45;100149.10;;;-1.32;63.30
77081;BME280;66009;53.150;18.160;2022-12-11T17:04:18;100147.55;;;-1.28;64.77
77081;BME280;66009;53.150;18.160;2022-12-11T17:06:48;100140.70;;;-1.31;65.16
77081;BME280;66009;53.150;18.160;2022-12-11T17:09:38;100138.19;;;-1.30;64.29
77081;BME280;66009;53.150;18.160;2022-12-11T17:12:14;100138.30;;;-1.30;64.50
77081;BME280;66009;53.150;18.160;2022-12-11T17:14:43;100134.50;;;-1.31;65.49
77081;BME280;66009;53.150;18.160;2022-12-11T17:17:09;100131.69;;;-1.33;65.75
77081;BME280;66009;53.150;18.160;2022-12-11T17:19:36;100127.13;;;-1.35;65.20
77081;BME280;66009;53.150;18.160;2022-12-11T17:22:03;100128.88;;;-1.38;65.63
77081;BME280;66009;53.150;18.160;2022-12-11T17:24:30;100128.77;;;-1.38;65.64
77081;BME280;66009;53.150;18.160;2022-12-11T17:27:08;100120.77;;;-1.40;65.56
77081;BME280;66009;53.150;18.160;2022-12-11T17:29:34;100121.28;;;-1.40;65.66
77081;BME280;66009;53.150;18.160;2022-12-11T17:32:01;100122.73;;;-1.40;65.80
77081;BME280;66009;53.150;18.160;2022-12-11T17:34:29;100125.08;;;-1.40;66.65
77081;BME280;66009;53.150;18.160;2022-12-11T17:36:56;100124.44;;;-1.42;66.70
77081;BME280;66009;53.150;18.160;2022-12-11T17:39:57;100117.98;;;-1.42;66.92
77081;BME280;66009;53.150;18.160;2022-12-11T17:47:19;100114.58;;;-1.44;67.06
77081;BME280;66009;53.150;18.160;2022-12-11T17:49:57;100119.89;;;-1.42;68.20
77081;BME280;66009;53.150;18.160;2022-12-11T17:52:32;100119.33;;;-1.42;68.12
77081;BME280;66009;53.150;18.160;2022-12-11T17:55:14;100116.83;;;-1.41;68.06
77081;BME280;66009;53.150;18.160;2022-12-11T17:57:45;100118.18;;;-1.41;67.89
77081;BME280;66009;53.150;18.160;2022-12-11T18:00:27;100119.59;;;-1.38;68.88
77081;BME280;66009;53.150;18.160;2022-12-11T18:03:00;100117.29;;;-1.30;69.60
77081;BME280;66009;53.150;18.160;2022-12-11T18:05:30;100121.66;;;-1.20;69.23
77081;BME280;66009;53.150;18.160;2022-12-11T18:08:02;100123.98;;;-1.15;68.68
77081;BME280;66009;53.150;18.160;2022-12-11T18:10:35;100126.89;;;-1.07;68.45
77081;BME280;66009;53.150;18.160;2022-12-11T18:13:16;100126.04;;;-1.02;68.78
77081;BME280;66009;53.150;18.160;2022-12-11T18:16:07;100131.44;;;-0.98;68.57
77081;BME280;66009;53.150;18.160;2022-12-11T18:18:38;100125.15;;;-0.99;68.73
77081;BME280;66009;53.150;18.160;2022-12-11T18:21:13;100126.76;;;-0.99;68.60
77081;BME280;66009;53.150;18.160;2022-12-11T18:23:44;100129.84;;;-0.98;68.67
77081;BME280;66009;53.150;18.160;2022-12-11T18:26:27;100122.14;;;-1.01;69.00
77081;BME280;66009;53.150;18.160;2022-12-11T18:28:56;100126.29;;;-1.02;69.12
77081;BME280;66009;53.150;18.160;2022-12-11T18:31:24;100126.06;;;-1.04;69.49
77081;BME280;66009;53.150;18.160;2022-12-11T18:34:03;100126.91;;;-1.08;69.83
77081;BME280;66009;53.150;18.160;2022-12-11T18:36:39;100130.33;;;-1.10;70.36
77081;BME280;66009;53.150;18.160;2022-12-11T18:39:25;100126.84;;;-1.13;69.83
77081;BME280;66009;53.150;18.160;2022-12-11T18:41:52;100126.55;;;-1.16;70.51
77081;BME280;66009;53.150;18.160;2022-12-11T18:44:27;100120.75;;;-1.20;71.12
77081;BME280;66009;53.150;18.160;2022-12-11T18:47:08;100122.52;;;-1.20;71.07
77081;BME280;66009;53.150;18.160;2022-12-11T18:55:54;100126.47;;;-1.25;71.41
77081;BME280;66009;53.150;18.160;2022-12-11T19:03:58;100121.77;;;-1.13;71.49
77081;BME280;66009;53.150;18.160;2022-12-11T19:07:36;100114.94;;;-1.06;71.34
77081;BME280;66009;53.150;18.160;2022-12-11T19:10:04;100115.98;;;-1.00;71.34
77081;BME280;66009;53.150;18.160;2022-12-11T19:12:35;100114.15;;;-0.97;71.35
77081;BME280;66009;53.150;18.160;2022-12-11T19:15:40;100117.48;;;-0.95;71.87
77081;BME280;66009;53.150;18.160;2022-12-11T19:18:10;100113.46;;;-0.93;72.46
77081;BME280;66009;53.150;18.160;2022-12-11T19:20:38;100112.88;;;-0.92;71.79
77081;BME280;66009;53.150;18.160;2022-12-11T19:23:11;100111.36;;;-0.91;71.91
77081;BME280;66009;53.150;18.160;2022-12-11T19:26:17;100107.88;;;-0.92;71.84
77081;BME280;66009;53.150;18.160;2022-12-11T19:28:47;100105.99;;;-0.92;71.88
77081;BME280;66009;53.150;18.160;2022-12-11T19:31:18;100110.30;;;-0.89;72.11
77081;BME280;66009;53.150;18.160;2022-12-11T19:33:44;100113.73;;;-0.81;71.44
77081;BME280;66009;53.150;18.160;2022-12-11T19:36:16;100106.75;;;-0.74;71.53
77081;BME280;66009;53.150;18.160;2022-12-11T19:38:45;100109.27;;;-0.69;71.25
77081;BME280;66009;53.150;18.160;2022-12-11T19:41:20;100105.88;;;-0.64;71.67
77081;BME280;66009;53.150;18.160;2022-12-11T19:43:48;100101.14;;;-0.63;71.61
77081;BME280;66009;53.150;18.160;2022-12-11T19:46:16;100103.02;;;-0.62;71.71
77081;BME280;66009;53.150;18.160;2022-12-11T19:48:43;100099.48;;;-0.62;72.19
77081;BME280;66009;53.150;18.160;2022-12-11T19:51:14;100099.25;;;-0.62;71.56
77081;BME280;66009;53.150;18.160;2022-12-11T19:53:48;100101.06;;;-0.62;71.86
77081;BME280;66009;53.150;18.160;2022-12-11T19:56:15;100101.40;;;-0.64;72.05
77081;BME280;66009;53.150;18.160;2022-12-11T19:58:42;100102.17;;;-0.65;72.00
77081;BME280;66009;53.150;18.160;2022-12-11T20:01:09;100105.83;;;-0.66;71.73
77081;BME280;66009;53.150;18.160;2022-12-11T20:03:42;100099.48;;;-0.68;71.94
77081;BME280;66009;53.150;18.160;2022-12-11T20:06:08;100101.53;;;-0.69;71.77
77081;BME280;66009;53.150;18.160;2022-12-11T20:08:35;100100.55;;;-0.70;71.84
77081;BME280;66009;53.150;18.160;2022-12-11T20:11:06;100099.26;;;-0.68;72.61
77081;BME280;66009;53.150;18.160;2022-12-11T20:13:35;100096.24;;;-0.60;72.02
77081;BME280;66009;53.150;18.160;2022-12-11T20:16:05;100096.31;;;-0.54;71.55
77081;BME280;66009;53.150;18.160;2022-12-11T20:18:31;100093.73;;;-0.51;71.70
77081;BME280;66009;53.150;18.160;2022-12-11T20:21:03;100096.16;;;-0.48;71.87
77081;BME280;66009;53.150;18.160;2022-12-11T20:23:30;100089.86;;;-0.47;72.32
77081;BME280;66009;53.150;18.160;2022-12-11T20:25:57;100086.09;;;-0.47;72.23
77081;BME280;66009;53.150;18.160;2022-12-11T20:28:24;100078.98;;;-0.48;72.34
77081;BME280;66009;53.150;18.160;2022-12-11T20:30:51;100075.52;;;-0.51;72.27
77081;BME280;66009;53.150;18.160;2022-12-11T20:33:17;100072.12;;;-0.51;72.42
77081;BME280;66009;53.150;18.160;2022-12-11T20:35:44;100074.39;;;-0.52;72.49
77081;BME280;66009;53.150;18.160;2022-12-11T20:38:11;100071.73;;;-0.54;71.99
77081;BME280;66009;53.150;18.160;2022-12-11T20:40:38;100066.42;;;-0.57;72.85
77081;BME280;66009;53.150;18.160;2022-12-11T20:43:05;100066.80;;;-0.51;72.84
77081;BME280;66009;53.150;18.160;2022-12-11T20:45:31;100063.65;;;-0.47;72.64
77081;BME280;66009;53.150;18.160;2022-12-11T20:47:57;100064.42;;;-0.43;72.50
77081;BME280;66009;53.150;18.160;2022-12-11T20:50:23;100058.91;;;-0.43;72.36
77081;BME280;66009;53.150;18.160;2022-12-11T20:52:53;100060.02;;;-0.44;72.20
77081;BME280;66009;53.150;18.160;2022-12-11T20:55:19;100054.95;;;-0.45;72.49
77081;BME280;66009;53.150;18.160;2022-12-11T20:57:46;100055.30;;;-0.47;72.40
77081;BME280;66009;53.150;18.160;2022-12-11T21:00:15;100054.53;;;-0.48;72.41
77081;BME280;66009;53.150;18.160;2022-12-11T21:02:43;100053.79;;;-0.52;72.89
77081;BME280;66009;53.150;18.160;2022-12-11T21:05:10;100059.05;;;-0.53;73.17
77081;BME280;66009;53.150;18.160;2022-12-11T21:07:39;100058.25;;;-0.56;73.06
77081;BME280;66009;53.150;18.160;2022-12-11T21:10:11;100060.34;;;-0.58;73.55
77081;BME280;66009;53.150;18.160;2022-12-11T21:12:38;100059.82;;;-0.60;73.33
77081;BME280;66009;53.150;18.160;2022-12-11T21:15:05;100054.88;;;-0.58;74.19
77081;BME280;66009;53.150;18.160;2022-12-11T21:17:37;100052.65;;;-0.53;73.32
77081;BME280;66009;53.150;18.160;2022-12-11T21:20:06;100049.95;;;-0.48;73.37
77081;BME280;66009;53.150;18.160;2022-12-11T21:22:35;100054.29;;;-0.45;73.31
77081;BME280;66009;53.150;18.160;2022-12-11T21:25:05;100048.22;;;-0.45;73.50
77081;BME280;66009;53.150;18.160;2022-12-11T21:27:32;100044.89;;;-0.45;73.22
77081;BME280;66009;53.150;18.160;2022-12-11T21:29:59;100037.06;;;-0.50;73.25
77081;BME280;66009;53.150;18.160;2022-12-11T21:32:35;100039.95;;;-0.49;72.89
77081;BME280;66009;53.150;18.160;2022-12-11T21:35:31;100040.30;;;-0.51;73.17
77081;BME280;66009;53.150;18.160;2022-12-11T21:38:08;100035.70;;;-0.53;73.24
77081;BME280;66009;53.150;18.160;2022-12-11T21:40:48;100036.48;;;-0.54;73.17
77081;BME280;66009;53.150;18.160;2022-12-11T21:43:29;100034.59;;;-0.56;73.23
77081;BME280;66009;53.150;18.160;2022-12-11T21:50:09;100029.86;;;-0.61;73.70
77081;BME280;66009;53.150;18.160;2022-12-11T21:55:58;100024.92;;;-0.53;73.02
77081;BME280;66009;53.150;18.160;2022-12-11T22:02:41;100019.97;;;-0.45;73.33
77081;BME280;66009;53.150;18.160;2022-12-11T22:05:36;100014.14;;;-0.47;73.79
77081;BME280;66009;53.150;18.160;2022-12-11T22:12:05;100013.62;;;-0.50;73.28
77081;BME280;66009;53.150;18.160;2022-12-11T22:15:03;100012.95;;;-0.50;73.31
77081;BME280;66009;53.150;18.160;2022-12-11T22:18:23;100018.00;;;-0.51;73.33
77081;BME280;66009;53.150;18.160;2022-12-11T22:21:17;100017.89;;;-0.52;73.49
77081;BME280;66009;53.150;18.160;2022-12-11T22:23:57;100014.45;;;-0.53;73.39
77081;BME280;66009;53.150;18.160;2022-12-11T22:26:33;100011.34;;;-0.54;73.38
77081;BME280;66009;53.150;18.160;2022-12-11T22:29:17;100011.95;;;-0.53;73.00
77081;BME280;66009;53.150;18.160;2022-12-11T22:31:49;100014.34;;;-0.46;73.36
77081;BME280;66009;53.150;18.160;2022-12-11T22:34:49;100008.27;;;-0.39;73.16
77081;BME280;66009;53.150;18.160;2022-12-11T22:37:28;100011.09;;;-0.35;73.11
77081;BME280;66009;53.150;18.160;2022-12-11T22:40:03;100009.94;;;-0.34;73.03
77081;BME280;66009;53.150;18.160;2022-12-11T22:58:19;100025.33;;;-0.39;72.96
77081;BME280;66009;53.150;18.160;2022-12-11T23:01:23;100023.60;;;-0.42;72.99
77081;BME280;66009;53.150;18.160;2022-12-11T23:04:45;100026.44;;;-0.36;72.96
77081;BME280;66009;53.150;18.160;2022-12-11T23:25:52;100022.40;;;0.36;71.41
77081;BME280;66009;53.150;18.160;2022-12-11T23:28:54;100027.05;;;0.35;71.12
77081;BME280;66009;53.150;18.160;2022-12-11T23:31:30;100022.96;;;0.26;71.35
77081;BME280;66009;53.150;18.160;2022-12-11T23:34:04;100022.65;;;0.19;71.63
77081;BME280;66009;53.150;18.160;2022-12-11T23:36:53;100024.08;;;0.12;71.98
77081;BME280;66009;53.150;18.160;2022-12-11T23:39:33;100021.29;;;0.07;71.99
77081;BME280;66009;53.150;18.160;2022-12-11T23:42:00;100021.60;;;0.02;72.04
77081;BME280;66009;53.150;18.160;2022-12-11T23:44:30;100025.34;;;-0.03;72.09
77081;BME280;66009;53.150;18.160;2022-12-11T23:47:00;100023.27;;;-0.07;72.51
77081;BME280;66009;53.150;18.160;2022-12-11T23:49:37;100025.23;;;-0.11;72.28
77081;BME280;66009;53.150;18.160;2022-12-11T23:52:15;100025.90;;;-0.13;72.78
77081;BME280;66009;53.150;18.160;2022-12-11T23:55:11;100022.15;;;-0.08;72.46
